sensor_id;sensor_type;location;lat;lon;timestamp;P1;durP1;ratioP1;P2;durP2;ratioP2
64799;SDS011;51233;51.982;4.594;2023-07-29T00:01:22;2.93;;;1.57;;
64799;SDS011;51233;51.982;4.594;2023-07-29T00:04:22;1.63;;;1.10;;
64799;SDS011;51233;51.982;4.594;2023-07-29T00:07:23;4.93;;;1.23;;
64799;SDS011;51233;51.982;4.594;2023-07-29T00:10:23;2.33;;;1.23;;
64799;SDS011;51233;51.982;4.594;2023-07-29T00:13:23;3.23;;;1.37;;
64799;SDS011;51233;51.982;4.594;2023-07-29T00:16:23;4.33;;;1.40;;
64799;SDS011;51233;51.982;4.594;2023-07-29T00:19:24;3.67;;;1.57;;
64799;SDS011;51233;51.982;4.594;2023-07-29T00:22:24;4.55;;;1.65;;
64799;SDS011;51233;51.982;4.594;2023-07-29T00:25:24;4.35;;;2.00;;
64799;SDS011;51233;51.982;4.594;2023-07-29T00:28:24;5.43;;;1.90;;
64799;SDS011;51233;51.982;4.594;2023-07-29T00:31:24;3.30;;;1.70;;
64799;SDS011;51233;51.982;4.594;2023-07-29T00:34:27;6.67;;;1.67;;
64799;SDS011;51233;51.982;4.594;2023-07-29T00:37:28;5.32;;;1.98;;
64799;SDS011;51233;51.982;4.594;2023-07-29T00:40:28;4.53;;;1.87;;
64799;SDS011;51233;51.982;4.594;2023-07-29T00:43:29;2.83;;;1.77;;
64799;SDS011;51233;51.982;4.594;2023-07-29T00:46:29;6.33;;;1.73;;
64799;SDS011;51233;51.982;4.594;2023-07-29T00:49:29;6.47;;;2.10;;
64799;SDS011;51233;51.982;4.594;2023-07-29T00:52:29;4.03;;;2.10;;
64799;SDS011;51233;51.982;4.594;2023-07-29T00:55:36;7.83;;;2.53;;
64799;SDS011;51233;51.982;4.594;2023-07-29T00:58:38;4.13;;;2.45;;
64799;SDS011;51233;51.982;4.594;2023-07-29T01:01:38;3.83;;;2.38;;
64799;SDS011;51233;51.982;4.594;2023-07-29T01:04:38;3.97;;;2.40;;
64799;SDS011;51233;51.982;4.594;2023-07-29T01:07:39;5.80;;;2.27;;
64799;SDS011;51233;51.982;4.594;2023-07-29T01:13:52;4.15;;;2.00;;
64799;SDS011;51233;51.982;4.594;2023-07-29T01:16:55;3.97;;;1.58;;
64799;SDS011;51233;51.982;4.594;2023-07-29T01:20:00;7.88;;;2.05;;
64799;SDS011;51233;51.982;4.594;2023-07-29T01:23:09;3.40;;;1.70;;
64799;SDS011;51233;51.982;4.594;2023-07-29T01:26:09;2.20;;;1.48;;
64799;SDS011;51233;51.982;4.594;2023-07-29T01:29:09;3.07;;;1.40;;
64799;SDS011;51233;51.982;4.594;2023-07-29T01:35:33;3.65;;;1.77;;
64799;SDS011;51233;51.982;4.594;2023-07-29T01:38:36;3.50;;;1.80;;
64799;SDS011;51233;51.982;4.594;2023-07-29T01:41:38;3.58;;;1.95;;
64799;SDS011;51233;51.982;4.594;2023-07-29T01:44:39;2.42;;;1.48;;
64799;SDS011;51233;51.982;4.594;2023-07-29T01:47:39;2.57;;;1.70;;
64799;SDS011;51233;51.982;4.594;2023-07-29T01:53:41;1.58;;;1.48;;
64799;SDS011;51233;51.982;4.594;2023-07-29T01:56:44;3.22;;;1.50;;
64799;SDS011;51233;51.982;4.594;2023-07-29T01:59:44;1.65;;;1.30;;
64799;SDS011;51233;51.982;4.594;2023-07-29T02:02:44;5.50;;;1.70;;
64799;SDS011;51233;51.982;4.594;2023-07-29T02:05:45;4.53;;;1.40;;
64799;SDS011;51233;51.982;4.594;2023-07-29T02:08:45;1.63;;;1.50;;
64799;SDS011;51233;51.982;4.594;2023-07-29T02:11:45;3.15;;;1.30;;
64799;SDS011;51233;51.982;4.594;2023-07-29T02:14:45;3.43;;;1.70;;
64799;SDS011;51233;51.982;4.594;2023-07-29T02:17:45;3.20;;;1.35;;
64799;SDS011;51233;51.982;4.594;2023-07-29T02:20:46;2.67;;;1.60;;
64799;SDS011;51233;51.982;4.594;2023-07-29T02:23:58;1.52;;;1.30;;
64799;SDS011;51233;51.982;4.594;2023-07-29T02:26:58;4.40;;;1.67;;
64799;SDS011;51233;51.982;4.594;2023-07-29T02:29:58;3.23;;;1.97;;
64799;SDS011;51233;51.982;4.594;2023-07-29T02:32:59;3.07;;;1.83;;
64799;SDS011;51233;51.982;4.594;2023-07-29T02:36:01;3.25;;;1.95;;
64799;SDS011;51233;51.982;4.594;2023-07-29T02:39:01;1.80;;;1.60;;
64799;SDS011;51233;51.982;4.594;2023-07-29T02:42:01;5.73;;;1.60;;
64799;SDS011;51233;51.982;4.594;2023-07-29T02:45:02;2.27;;;1.93;;
64799;SDS011;51233;51.982;4.594;2023-07-29T02:48:02;2.57;;;1.60;;
64799;SDS011;51233;51.982;4.594;2023-07-29T02:51:02;1.60;;;1.50;;
64799;SDS011;51233;51.982;4.594;2023-07-29T02:54:02;2.13;;;1.70;;
64799;SDS011;51233;51.982;4.594;2023-07-29T02:57:02;1.70;;;1.60;;
64799;SDS011;51233;51.982;4.594;2023-07-29T03:00:03;1.77;;;1.43;;
64799;SDS011;51233;51.982;4.594;2023-07-29T03:03:03;2.70;;;1.60;;
64799;SDS011;51233;51.982;4.594;2023-07-29T03:06:04;2.63;;;1.50;;
64799;SDS011;51233;51.982;4.594;2023-07-29T03:09:05;2.85;;;1.60;;
64799;SDS011;51233;51.982;4.594;2023-07-29T03:12:05;4.33;;;1.60;;
64799;SDS011;51233;51.982;4.594;2023-07-29T03:15:06;3.13;;;1.80;;
64799;SDS011;51233;51.982;4.594;2023-07-29T03:18:06;5.73;;;2.00;;
64799;SDS011;51233;51.982;4.594;2023-07-29T03:21:06;4.13;;;1.90;;
64799;SDS011;51233;51.982;4.594;2023-07-29T03:24:09;3.13;;;2.10;;
64799;SDS011;51233;51.982;4.594;2023-07-29T03:27:10;4.33;;;2.00;;
64799;SDS011;51233;51.982;4.594;2023-07-29T03:30:10;5.47;;;2.23;;
64799;SDS011;51233;51.982;4.594;2023-07-29T03:33:10;1.93;;;1.60;;
64799;SDS011;51233;51.982;4.594;2023-07-29T03:36:10;2.17;;;1.87;;
64799;SDS011;51233;51.982;4.594;2023-07-29T03:39:10;4.73;;;2.20;;
64799;SDS011;51233;51.982;4.594;2023-07-29T03:42:11;2.58;;;2.00;;
64799;SDS011;51233;51.982;4.594;2023-07-29T03:45:11;4.32;;;2.30;;
64799;SDS011;51233;51.982;4.594;2023-07-29T03:48:11;4.43;;;2.00;;
64799;SDS011;51233;51.982;4.594;2023-07-29T03:51:12;4.87;;;2.43;;
64799;SDS011;51233;51.982;4.594;2023-07-29T03:54:12;3.28;;;1.85;;
64799;SDS011;51233;51.982;4.594;2023-07-29T03:57:12;2.33;;;1.83;;
64799;SDS011;51233;51.982;4.594;2023-07-29T04:00:12;4.00;;;2.40;;
64799;SDS011;51233;51.982;4.594;2023-07-29T04:03:13;6.67;;;2.27;;
64799;SDS011;51233;51.982;4.594;2023-07-29T04:06:13;5.53;;;2.30;;
64799;SDS011;51233;51.982;4.594;2023-07-29T04:09:13;3.30;;;2.10;;
64799;SDS011;51233;51.982;4.594;2023-07-29T04:12:14;6.00;;;3.00;;
64799;SDS011;51233;51.982;4.594;2023-07-29T04:15:14;7.20;;;2.50;;
64799;SDS011;51233;51.982;4.594;2023-07-29T04:18:14;3.63;;;2.90;;
64799;SDS011;51233;51.982;4.594;2023-07-29T04:21:14;4.60;;;2.67;;
64799;SDS011;51233;51.982;4.594;2023-07-29T04:24:15;2.60;;;2.40;;
64799;SDS011;51233;51.982;4.594;2023-07-29T04:27:15;5.07;;;3.20;;
64799;SDS011;51233;51.982;4.594;2023-07-29T04:30:15;4.50;;;2.67;;
64799;SDS011;51233;51.982;4.594;2023-07-29T04:33:15;6.27;;;3.13;;
64799;SDS011;51233;51.982;4.594;2023-07-29T04:36:16;8.67;;;3.00;;
64799;SDS011;51233;51.982;4.594;2023-07-29T04:39:16;5.43;;;2.50;;
64799;SDS011;51233;51.982;4.594;2023-07-29T04:42:16;4.80;;;2.30;;
64799;SDS011;51233;51.982;4.594;2023-07-29T04:45:16;4.90;;;2.83;;
64799;SDS011;51233;51.982;4.594;2023-07-29T04:48:16;3.20;;;2.90;;
64799;SDS011;51233;51.982;4.594;2023-07-29T04:51:17;5.63;;;3.10;;
64799;SDS011;51233;51.982;4.594;2023-07-29T04:54:17;3.63;;;2.77;;
64799;SDS011;51233;51.982;4.594;2023-07-29T04:57:20;7.00;;;2.78;;
64799;SDS011;51233;51.982;4.594;2023-07-29T05:00:20;7.70;;;3.47;;
64799;SDS011;51233;51.982;4.594;2023-07-29T05:03:21;5.32;;;3.00;;
64799;SDS011;51233;51.982;4.594;2023-07-29T05:06:24;3.00;;;2.70;;
64799;SDS011;51233;51.982;4.594;2023-07-29T05:09:24;6.15;;;3.25;;
64799;SDS011;51233;51.982;4.594;2023-07-29T05:12:24;3.83;;;3.00;;
64799;SDS011;51233;51.982;4.594;2023-07-29T05:15:24;5.00;;;3.30;;
64799;SDS011;51233;51.982;4.594;2023-07-29T05:18:24;4.75;;;2.45;;
64799;SDS011;51233;51.982;4.594;2023-07-29T05:21:25;4.47;;;2.60;;
64799;SDS011;51233;51.982;4.594;2023-07-29T05:24:25;8.47;;;3.63;;
64799;SDS011;51233;51.982;4.594;2023-07-29T05:27:25;5.30;;;3.10;;
64799;SDS011;51233;51.982;4.594;2023-07-29T05:30:25;3.38;;;2.95;;
64799;SDS011;51233;51.982;4.594;2023-07-29T05:33:27;7.40;;;3.50;;
64799;SDS011;51233;51.982;4.594;2023-07-29T05:36:27;6.10;;;3.45;;
64799;SDS011;51233;51.982;4.594;2023-07-29T05:39:27;5.63;;;2.93;;
64799;SDS011;51233;51.982;4.594;2023-07-29T05:42:27;5.18;;;3.25;;
64799;SDS011;51233;51.982;4.594;2023-07-29T05:45:27;4.47;;;2.93;;
64799;SDS011;51233;51.982;4.594;2023-07-29T05:48:28;3.10;;;2.77;;
64799;SDS011;51233;51.982;4.594;2023-07-29T05:51:28;4.00;;;3.00;;
64799;SDS011;51233;51.982;4.594;2023-07-29T05:54:29;5.22;;;3.15;;
64799;SDS011;51233;51.982;4.594;2023-07-29T05:57:29;5.53;;;2.65;;
64799;SDS011;51233;51.982;4.594;2023-07-29T06:00:29;5.07;;;3.10;;
64799;SDS011;51233;51.982;4.594;2023-07-29T06:03:29;5.47;;;3.42;;
64799;SDS011;51233;51.982;4.594;2023-07-29T06:06:32;7.13;;;3.00;;
64799;SDS011;51233;51.982;4.594;2023-07-29T06:09:32;5.70;;;3.13;;
64799;SDS011;51233;51.982;4.594;2023-07-29T06:12:32;5.33;;;2.87;;
64799;SDS011;51233;51.982;4.594;2023-07-29T06:15:33;5.13;;;3.30;;
64799;SDS011;51233;51.982;4.594;2023-07-29T06:18:33;3.73;;;2.80;;
64799;SDS011;51233;51.982;4.594;2023-07-29T06:21:36;5.30;;;2.53;;
64799;SDS011;51233;51.982;4.594;2023-07-29T06:24:36;4.90;;;2.65;;
64799;SDS011;51233;51.982;4.594;2023-07-29T06:27:36;3.83;;;2.33;;
64799;SDS011;51233;51.982;4.594;2023-07-29T06:30:36;7.30;;;3.10;;
64799;SDS011;51233;51.982;4.594;2023-07-29T06:33:37;3.30;;;2.80;;
64799;SDS011;51233;51.982;4.594;2023-07-29T06:36:37;7.77;;;3.00;;
64799;SDS011;51233;51.982;4.594;2023-07-29T06:39:37;5.50;;;2.30;;
64799;SDS011;51233;51.982;4.594;2023-07-29T06:42:37;5.35;;;2.28;;
64799;SDS011;51233;51.982;4.594;2023-07-29T06:45:37;6.27;;;2.57;;
64799;SDS011;51233;51.982;4.594;2023-07-29T06:48:38;5.50;;;2.60;;
64799;SDS011;51233;51.982;4.594;2023-07-29T06:51:38;4.32;;;2.10;;
64799;SDS011;51233;51.982;4.594;2023-07-29T06:54:41;3.28;;;2.15;;
64799;SDS011;51233;51.982;4.594;2023-07-29T06:57:41;3.28;;;2.20;;
64799;SDS011;51233;51.982;4.594;2023-07-29T07:00:41;3.47;;;2.60;;
64799;SDS011;51233;51.982;4.594;2023-07-29T07:03:41;4.70;;;2.30;;
64799;SDS011;51233;51.982;4.594;2023-07-29T07:06:41;4.77;;;2.30;;
64799;SDS011;51233;51.982;4.594;2023-07-29T07:09:42;4.63;;;2.30;;
64799;SDS011;51233;51.982;4.594;2023-07-29T07:12:42;2.95;;;2.17;;
64799;SDS011;51233;51.982;4.594;2023-07-29T07:15:42;5.20;;;2.20;;
64799;SDS011;51233;51.982;4.594;2023-07-29T07:18:42;4.57;;;2.10;;
64799;SDS011;51233;51.982;4.594;2023-07-29T07:21:42;7.37;;;2.40;;
64799;SDS011;51233;51.982;4.594;2023-07-29T07:24:43;4.43;;;2.50;;
64799;SDS011;51233;51.982;4.594;2023-07-29T07:27:43;8.03;;;1.90;;
64799;SDS011;51233;51.982;4.594;2023-07-29T07:30:43;4.27;;;2.00;;
64799;SDS011;51233;51.982;4.594;2023-07-29T07:33:46;6.57;;;2.10;;
64799;SDS011;51233;51.982;4.594;2023-07-29T07:36:46;4.45;;;1.90;;
64799;SDS011;51233;51.982;4.594;2023-07-29T07:39:46;5.00;;;2.07;;
64799;SDS011;51233;51.982;4.594;2023-07-29T07:42:47;3.13;;;2.10;;
64799;SDS011;51233;51.982;4.594;2023-07-29T07:45:47;6.20;;;2.03;;
64799;SDS011;51233;51.982;4.594;2023-07-29T07:48:47;4.47;;;1.93;;
64799;SDS011;51233;51.982;4.594;2023-07-29T07:51:47;3.77;;;1.80;;
64799;SDS011;51233;51.982;4.594;2023-07-29T07:54:51;4.80;;;2.13;;
64799;SDS011;51233;51.982;4.594;2023-07-29T07:57:51;2.58;;;1.45;;
64799;SDS011;51233;51.982;4.594;2023-07-29T08:01:04;4.13;;;1.90;;
64799;SDS011;51233;51.982;4.594;2023-07-29T08:04:07;3.60;;;1.52;;
64799;SDS011;51233;51.982;4.594;2023-07-29T08:07:07;2.07;;;1.40;;
64799;SDS011;51233;51.982;4.594;2023-07-29T08:10:08;4.53;;;1.80;;
64799;SDS011;51233;51.982;4.594;2023-07-29T08:13:08;7.83;;;2.10;;
64799;SDS011;51233;51.982;4.594;2023-07-29T08:16:08;4.90;;;1.95;;
64799;SDS011;51233;51.982;4.594;2023-07-29T08:19:08;3.25;;;1.42;;
64799;SDS011;51233;51.982;4.594;2023-07-29T08:22:09;5.20;;;1.77;;
64799;SDS011;51233;51.982;4.594;2023-07-29T08:25:12;4.07;;;1.40;;
64799;SDS011;51233;51.982;4.594;2023-07-29T08:28:13;4.97;;;1.27;;
64799;SDS011;51233;51.982;4.594;2023-07-29T08:31:13;2.23;;;1.57;;
64799;SDS011;51233;51.982;4.594;2023-07-29T08:34:15;4.63;;;2.33;;
64799;SDS011;51233;51.982;4.594;2023-07-29T08:37:15;2.13;;;1.70;;
64799;SDS011;51233;51.982;4.594;2023-07-29T08:40:16;3.60;;;2.00;;
64799;SDS011;51233;51.982;4.594;2023-07-29T08:43:16;4.10;;;1.97;;
64799;SDS011;51233;51.982;4.594;2023-07-29T08:46:19;5.60;;;2.20;;
64799;SDS011;51233;51.982;4.594;2023-07-29T08:49:19;3.17;;;2.17;;
64799;SDS011;51233;51.982;4.594;2023-07-29T08:52:20;4.50;;;2.23;;
64799;SDS011;51233;51.982;4.594;2023-07-29T08:55:23;6.57;;;2.33;;
64799;SDS011;51233;51.982;4.594;2023-07-29T08:58:23;3.17;;;2.00;;
64799;SDS011;51233;51.982;4.594;2023-07-29T09:01:24;5.00;;;2.50;;
64799;SDS011;51233;51.982;4.594;2023-07-29T09:04:24;4.63;;;1.80;;
64799;SDS011;51233;51.982;4.594;2023-07-29T09:07:25;4.80;;;2.10;;
64799;SDS011;51233;51.982;4.594;2023-07-29T09:10:29;2.55;;;1.88;;
64799;SDS011;51233;51.982;4.594;2023-07-29T09:13:29;2.85;;;2.40;;
64799;SDS011;51233;51.982;4.594;2023-07-29T09:16:29;4.67;;;2.33;;
64799;SDS011;51233;51.982;4.594;2023-07-29T09:19:32;3.73;;;1.80;;
64799;SDS011;51233;51.982;4.594;2023-07-29T09:22:32;4.38;;;2.05;;
64799;SDS011;51233;51.982;4.594;2023-07-29T09:25:33;3.93;;;2.30;;
64799;SDS011;51233;51.982;4.594;2023-07-29T09:28:37;3.47;;;2.10;;
64799;SDS011;51233;51.982;4.594;2023-07-29T09:31:37;2.60;;;1.77;;
64799;SDS011;51233;51.982;4.594;2023-07-29T09:34:41;3.60;;;2.30;;
64799;SDS011;51233;51.982;4.594;2023-07-29T09:37:41;2.25;;;1.77;;
64799;SDS011;51233;51.982;4.594;2023-07-29T09:46:45;2.45;;;2.05;;
64799;SDS011;51233;51.982;4.594;2023-07-29T09:49:45;3.80;;;2.00;;
64799;SDS011;51233;51.982;4.594;2023-07-29T09:52:46;4.03;;;2.13;;
64799;SDS011;51233;51.982;4.594;2023-07-29T09:55:53;2.38;;;1.65;;
64799;SDS011;51233;51.982;4.594;2023-07-29T09:58:55;1.60;;;1.40;;
64799;SDS011;51233;51.982;4.594;2023-07-29T10:01:55;2.45;;;1.60;;
64799;SDS011;51233;51.982;4.594;2023-07-29T10:04:56;1.83;;;1.70;;
64799;SDS011;51233;51.982;4.594;2023-07-29T10:07:56;2.60;;;1.50;;
64799;SDS011;51233;51.982;4.594;2023-07-29T10:10:57;2.17;;;1.73;;
64799;SDS011;51233;51.982;4.594;2023-07-29T10:13:58;1.27;;;1.13;;
64799;SDS011;51233;51.982;4.594;2023-07-29T10:17:00;2.95;;;1.40;;
64799;SDS011;51233;51.982;4.594;2023-07-29T10:20:00;2.33;;;1.13;;
64799;SDS011;51233;51.982;4.594;2023-07-29T10:23:00;0.87;;;0.87;;
64799;SDS011;51233;51.982;4.594;2023-07-29T10:26:02;1.85;;;1.00;;
64799;SDS011;51233;51.982;4.594;2023-07-29T10:29:06;1.00;;;0.80;;
64799;SDS011;51233;51.982;4.594;2023-07-29T10:32:08;3.20;;;0.90;;
64799;SDS011;51233;51.982;4.594;2023-07-29T10:35:14;2.08;;;1.10;;
64799;SDS011;51233;51.982;4.594;2023-07-29T10:38:19;0.70;;;0.70;;
64799;SDS011;51233;51.982;4.594;2023-07-29T10:41:21;1.80;;;0.90;;
64799;SDS011;51233;51.982;4.594;2023-07-29T10:45:06;1.27;;;1.00;;
64799;SDS011;51233;51.982;4.594;2023-07-29T10:47:51;1.33;;;1.00;;
64799;SDS011;51233;51.982;4.594;2023-07-29T10:51:03;1.90;;;1.10;;
64799;SDS011;51233;51.982;4.594;2023-07-29T10:54:14;1.30;;;1.20;;
64799;SDS011;51233;51.982;4.594;2023-07-29T10:57:17;3.72;;;1.38;;
64799;SDS011;51233;51.982;4.594;2023-07-29T11:00:30;1.50;;;1.38;;
64799;SDS011;51233;51.982;4.594;2023-07-29T11:03:30;3.67;;;1.50;;
64799;SDS011;51233;51.982;4.594;2023-07-29T11:06:33;1.48;;;1.38;;
64799;SDS011;51233;51.982;4.594;2023-07-29T11:09:54;2.03;;;1.55;;
64799;SDS011;51233;51.982;4.594;2023-07-29T11:12:58;3.83;;;1.67;;
64799;SDS011;51233;51.982;4.594;2023-07-29T11:16:01;2.30;;;1.42;;
64799;SDS011;51233;51.982;4.594;2023-07-29T11:19:01;2.30;;;1.40;;
64799;SDS011;51233;51.982;4.594;2023-07-29T11:22:01;2.03;;;1.60;;
64799;SDS011;51233;51.982;4.594;2023-07-29T11:25:02;1.70;;;1.60;;
64799;SDS011;51233;51.982;4.594;2023-07-29T11:28:03;3.15;;;1.75;;
64799;SDS011;51233;51.982;4.594;2023-07-29T11:31:03;2.27;;;1.40;;
64799;SDS011;51233;51.982;4.594;2023-07-29T11:34:06;1.58;;;1.48;;
64799;SDS011;51233;51.982;4.594;2023-07-29T11:37:06;2.60;;;1.60;;
64799;SDS011;51233;51.982;4.594;2023-07-29T11:40:08;1.60;;;1.50;;
64799;SDS011;51233;51.982;4.594;2023-07-29T11:43:17;1.63;;;1.52;;
64799;SDS011;51233;51.982;4.594;2023-07-29T11:46:20;1.60;;;1.50;;
64799;SDS011;51233;51.982;4.594;2023-07-29T11:49:23;2.97;;;1.45;;
64799;SDS011;51233;51.982;4.594;2023-07-29T11:52:23;3.92;;;1.50;;
64799;SDS011;51233;51.982;4.594;2023-07-29T11:55:23;2.88;;;1.60;;
64799;SDS011;51233;51.982;4.594;2023-07-29T11:58:24;5.50;;;1.80;;
64799;SDS011;51233;51.982;4.594;2023-07-29T12:01:27;2.85;;;1.80;;
64799;SDS011;51233;51.982;4.594;2023-07-29T12:04:27;1.90;;;1.70;;
64799;SDS011;51233;51.982;4.594;2023-07-29T12:07:28;3.23;;;1.80;;
64799;SDS011;51233;51.982;4.594;2023-07-29T12:10:28;1.93;;;1.70;;
64799;SDS011;51233;51.982;4.594;2023-07-29T12:13:28;3.10;;;1.77;;
64799;SDS011;51233;51.982;4.594;2023-07-29T12:16:28;6.63;;;2.15;;
64799;SDS011;51233;51.982;4.594;2023-07-29T12:19:38;3.92;;;2.10;;
64799;SDS011;51233;51.982;4.594;2023-07-29T12:22:38;2.70;;;2.47;;
64799;SDS011;51233;51.982;4.594;2023-07-29T12:25:39;2.70;;;2.50;;
64799;SDS011;51233;51.982;4.594;2023-07-29T12:28:42;2.83;;;2.60;;
64799;SDS011;51233;51.982;4.594;2023-07-29T12:31:44;5.10;;;2.13;;
64799;SDS011;51233;51.982;4.594;2023-07-29T12:34:44;2.07;;;1.87;;
64799;SDS011;51233;51.982;4.594;2023-07-29T12:37:44;3.60;;;1.90;;
64799;SDS011;51233;51.982;4.594;2023-07-29T12:40:45;2.30;;;1.77;;
64799;SDS011;51233;51.982;4.594;2023-07-29T12:43:45;2.70;;;1.90;;
64799;SDS011;51233;51.982;4.594;2023-07-29T12:46:45;3.37;;;1.80;;
64799;SDS011;51233;51.982;4.594;2023-07-29T12:49:46;3.80;;;1.87;;
64799;SDS011;51233;51.982;4.594;2023-07-29T12:52:46;3.43;;;1.80;;
64799;SDS011;51233;51.982;4.594;2023-07-29T12:55:46;2.67;;;1.60;;
64799;SDS011;51233;51.982;4.594;2023-07-29T12:58:46;4.00;;;1.73;;
64799;SDS011;51233;51.982;4.594;2023-07-29T13:01:52;4.53;;;1.55;;
64799;SDS011;51233;51.982;4.594;2023-07-29T13:04:52;4.35;;;1.35;;
64799;SDS011;51233;51.982;4.594;2023-07-29T13:07:52;2.22;;;1.42;;
64799;SDS011;51233;51.982;4.594;2023-07-29T13:10:52;2.40;;;1.33;;
64799;SDS011;51233;51.982;4.594;2023-07-29T13:13:53;2.30;;;1.70;;
64799;SDS011;51233;51.982;4.594;2023-07-29T13:16:53;2.17;;;1.20;;
64799;SDS011;51233;51.982;4.594;2023-07-29T13:19:53;1.23;;;1.13;;
64799;SDS011;51233;51.982;4.594;2023-07-29T13:22:56;3.15;;;1.30;;
64799;SDS011;51233;51.982;4.594;2023-07-29T13:25:57;3.15;;;1.35;;
64799;SDS011;51233;51.982;4.594;2023-07-29T13:28:57;4.65;;;1.52;;
64799;SDS011;51233;51.982;4.594;2023-07-29T13:31:57;1.40;;;1.10;;
64799;SDS011;51233;51.982;4.594;2023-07-29T13:34:58;2.27;;;1.27;;
64799;SDS011;51233;51.982;4.594;2023-07-29T13:37:58;3.53;;;1.53;;
64799;SDS011;51233;51.982;4.594;2023-07-29T13:41:01;1.70;;;1.10;;
64799;SDS011;51233;51.982;4.594;2023-07-29T13:44:02;2.00;;;1.15;;
64799;SDS011;51233;51.982;4.594;2023-07-29T13:47:02;2.20;;;1.30;;
64799;SDS011;51233;51.982;4.594;2023-07-29T13:50:02;1.87;;;1.40;;
64799;SDS011;51233;51.982;4.594;2023-07-29T13:53:03;1.27;;;1.13;;
64799;SDS011;51233;51.982;4.594;2023-07-29T13:56:04;2.50;;;1.10;;
64799;SDS011;51233;51.982;4.594;2023-07-29T13:59:04;1.43;;;1.00;;
64799;SDS011;51233;51.982;4.594;2023-07-29T14:02:04;1.93;;;1.17;;
64799;SDS011;51233;51.982;4.594;2023-07-29T14:05:07;4.68;;;1.35;;
64799;SDS011;51233;51.982;4.594;2023-07-29T14:08:08;2.40;;;1.43;;
64799;SDS011;51233;51.982;4.594;2023-07-29T14:11:11;1.97;;;1.20;;
64799;SDS011;51233;51.982;4.594;2023-07-29T14:14:11;1.63;;;1.30;;
64799;SDS011;51233;51.982;4.594;2023-07-29T14:17:11;2.50;;;1.50;;
64799;SDS011;51233;51.982;4.594;2023-07-29T14:20:11;6.13;;;1.50;;
64799;SDS011;51233;51.982;4.594;2023-07-29T14:23:12;1.50;;;1.17;;
64799;SDS011;51233;51.982;4.594;2023-07-29T14:26:12;1.40;;;1.10;;
64799;SDS011;51233;51.982;4.594;2023-07-29T14:29:12;0.90;;;0.90;;
64799;SDS011;51233;51.982;4.594;2023-07-29T14:32:12;1.50;;;0.90;;
64799;SDS011;51233;51.982;4.594;2023-07-29T14:35:13;1.13;;;0.97;;
64799;SDS011;51233;51.982;4.594;2023-07-29T14:38:13;1.53;;;1.17;;
64799;SDS011;51233;51.982;4.594;2023-07-29T14:41:13;2.03;;;1.00;;
64799;SDS011;51233;51.982;4.594;2023-07-29T14:44:13;1.67;;;1.23;;
64799;SDS011;51233;51.982;4.594;2023-07-29T14:47:13;2.22;;;1.27;;
64799;SDS011;51233;51.982;4.594;2023-07-29T14:50:14;5.53;;;1.57;;
64799;SDS011;51233;51.982;4.594;2023-07-29T14:53:20;1.50;;;1.40;;
64799;SDS011;51233;51.982;4.594;2023-07-29T14:56:20;3.60;;;1.25;;
64799;SDS011;51233;51.982;4.594;2023-07-29T14:59:20;2.13;;;1.30;;
64799;SDS011;51233;51.982;4.594;2023-07-29T15:02:21;1.57;;;1.17;;
64799;SDS011;51233;51.982;4.594;2023-07-29T15:08:22;3.97;;;1.40;;
64799;SDS011;51233;51.982;4.594;2023-07-29T15:11:23;3.03;;;1.23;;
64799;SDS011;51233;51.982;4.594;2023-07-29T15:14:23;2.05;;;1.30;;
64799;SDS011;51233;51.982;4.594;2023-07-29T15:17:23;1.63;;;1.02;;
64799;SDS011;51233;51.982;4.594;2023-07-29T15:20:23;2.13;;;1.30;;
64799;SDS011;51233;51.982;4.594;2023-07-29T15:23:23;3.13;;;1.30;;
64799;SDS011;51233;51.982;4.594;2023-07-29T15:26:24;2.40;;;1.20;;
64799;SDS011;51233;51.982;4.594;2023-07-29T15:29:24;1.67;;;1.20;;
64799;SDS011;51233;51.982;4.594;2023-07-29T15:32:24;2.03;;;1.30;;
64799;SDS011;51233;51.982;4.594;2023-07-29T15:35:24;4.77;;;1.23;;
64799;SDS011;51233;51.982;4.594;2023-07-29T15:38:24;1.70;;;1.27;;
64799;SDS011;51233;51.982;4.594;2023-07-29T15:41:25;1.00;;;0.90;;
64799;SDS011;51233;51.982;4.594;2023-07-29T15:44:25;6.90;;;1.53;;
64799;SDS011;51233;51.982;4.594;2023-07-29T15:47:25;3.53;;;1.30;;
64799;SDS011;51233;51.982;4.594;2023-07-29T15:50:25;2.77;;;1.60;;
64799;SDS011;51233;51.982;4.594;2023-07-29T15:53:26;3.10;;;1.30;;
64799;SDS011;51233;51.982;4.594;2023-07-29T15:56:29;1.47;;;1.00;;
64799;SDS011;51233;51.982;4.594;2023-07-29T15:59:29;3.50;;;1.20;;
64799;SDS011;51233;51.982;4.594;2023-07-29T16:02:29;3.27;;;1.70;;
64799;SDS011;51233;51.982;4.594;2023-07-29T16:05:29;4.93;;;1.73;;
64799;SDS011;51233;51.982;4.594;2023-07-29T16:08:30;2.10;;;1.27;;
64799;SDS011;51233;51.982;4.594;2023-07-29T16:11:35;4.45;;;1.45;;
64799;SDS011;51233;51.982;4.594;2023-07-29T16:14:36;2.30;;;1.40;;
64799;SDS011;51233;51.982;4.594;2023-07-29T16:17:36;5.27;;;2.13;;
64799;SDS011;51233;51.982;4.594;2023-07-29T16:20:36;4.73;;;2.20;;
64799;SDS011;51233;51.982;4.594;2023-07-29T16:23:36;5.90;;;2.40;;
64799;SDS011;51233;51.982;4.594;2023-07-29T16:26:37;7.33;;;2.40;;
64799;SDS011;51233;51.982;4.594;2023-07-29T16:29:37;3.97;;;2.10;;
64799;SDS011;51233;51.982;4.594;2023-07-29T16:32:37;7.65;;;3.22;;
64799;SDS011;51233;51.982;4.594;2023-07-29T16:35:37;8.70;;;2.30;;
64799;SDS011;51233;51.982;4.594;2023-07-29T16:38:37;4.10;;;1.70;;
64799;SDS011;51233;51.982;4.594;2023-07-29T16:41:38;7.67;;;2.43;;
64799;SDS011;51233;51.982;4.594;2023-07-29T16:44:38;6.70;;;2.30;;
64799;SDS011;51233;51.982;4.594;2023-07-29T16:47:40;4.50;;;2.15;;
64799;SDS011;51233;51.982;4.594;2023-07-29T16:50:40;8.50;;;2.20;;
64799;SDS011;51233;51.982;4.594;2023-07-29T16:53:40;9.48;;;2.22;;
64799;SDS011;51233;51.982;4.594;2023-07-29T16:56:41;4.10;;;1.30;;
64799;SDS011;51233;51.982;4.594;2023-07-29T16:59:41;9.97;;;2.87;;
64799;SDS011;51233;51.982;4.594;2023-07-29T17:02:41;6.63;;;2.57;;
64799;SDS011;51233;51.982;4.594;2023-07-29T17:05:41;8.70;;;2.70;;
64799;SDS011;51233;51.982;4.594;2023-07-29T17:08:47;5.57;;;1.35;;
64799;SDS011;51233;51.982;4.594;2023-07-29T17:11:48;4.15;;;1.50;;
64799;SDS011;51233;51.982;4.594;2023-07-29T17:14:48;14.17;;;3.27;;
64799;SDS011;51233;51.982;4.594;2023-07-29T17:17:48;9.67;;;2.20;;
64799;SDS011;51233;51.982;4.594;2023-07-29T17:20:52;8.35;;;2.63;;
64799;SDS011;51233;51.982;4.594;2023-07-29T17:23:52;8.10;;;2.63;;
64799;SDS011;51233;51.982;4.594;2023-07-29T17:26:53;8.18;;;2.30;;
64799;SDS011;51233;51.982;4.594;2023-07-29T17:29:53;9.23;;;2.07;;
64799;SDS011;51233;51.982;4.594;2023-07-29T17:33:00;4.22;;;1.77;;
64799;SDS011;51233;51.982;4.594;2023-07-29T17:36:00;8.90;;;2.43;;
64799;SDS011;51233;51.982;4.594;2023-07-29T17:39:00;10.30;;;2.90;;
64799;SDS011;51233;51.982;4.594;2023-07-29T17:42:00;8.17;;;2.40;;
64799;SDS011;51233;51.982;4.594;2023-07-29T17:45:01;13.43;;;2.77;;
64799;SDS011;51233;51.982;4.594;2023-07-29T17:48:01;11.40;;;2.73;;
64799;SDS011;51233;51.982;4.594;2023-07-29T17:51:01;8.10;;;2.83;;
64799;SDS011;51233;51.982;4.594;2023-07-29T17:54:02;11.67;;;3.20;;
64799;SDS011;51233;51.982;4.594;2023-07-29T17:57:02;7.60;;;2.70;;
64799;SDS011;51233;51.982;4.594;2023-07-29T18:00:05;9.87;;;3.07;;
64799;SDS011;51233;51.982;4.594;2023-07-29T18:03:11;10.25;;;2.60;;
64799;SDS011;51233;51.982;4.594;2023-07-29T18:06:17;8.13;;;2.37;;
64799;SDS011;51233;51.982;4.594;2023-07-29T18:09:17;12.45;;;3.10;;
64799;SDS011;51233;51.982;4.594;2023-07-29T18:12:19;11.27;;;2.92;;
64799;SDS011;51233;51.982;4.594;2023-07-29T18:15:19;6.83;;;2.27;;
64799;SDS011;51233;51.982;4.594;2023-07-29T18:18:25;9.23;;;2.78;;
64799;SDS011;51233;51.982;4.594;2023-07-29T18:21:25;9.15;;;2.35;;
64799;SDS011;51233;51.982;4.594;2023-07-29T18:24:25;8.33;;;2.73;;
64799;SDS011;51233;51.982;4.594;2023-07-29T18:27:26;9.50;;;3.00;;
64799;SDS011;51233;51.982;4.594;2023-07-29T18:30:26;10.73;;;2.83;;